Time;durP1;ratioP1;P1;durP2;ratioP2;P2;SDS_P1;SDS_P2;PMS_P1;PMS_P2;Temp;Humidity;BMP_temperature;BMP_pressure;BME280_temperature;BME280_humidity;BME280_pressure;Samples;Min_cycle;Max_cycle;Signal;HPM_P1;HPM_P2
2023/07/17 12:17:46;;;;;;;7.90;5.38;;;;;;;;;;5407629;22;20095;-79
2023/07/17 12:20:15;;;;;;;9.02;5.90;;;;;;;;;;5062163;28;21082;-80
2023/07/17 12:22:41;;;;;;;7.03;5.30;;;;;;;;;;5068481;28;20067;-79
2023/07/17 12:25:08;;;;;;;9.05;5.65;;;;;;;;;;5065362;28;20039;-79
2023/07/17 12:27:34;;;;;;;7.53;5.57;;;998.40;1459.20;;;;;;5063249;28;20033;-79
2023/07/17 12:30:00;;;;;;;7.60;5.68;;;973.60;1484.80;;;;;;5061561;28;20028;-79
2023/07/17 12:32:26;;;;;;;10.43;5.57;;;973.40;1536.00;;;;;;5045797;28;20505;-79
2023/07/17 12:34:52;;;;;;;8.00;5.70;;;973.30;1510.40;;;;;;5050782;28;20044;-79
2023/07/17 12:37:17;;;;;;;7.70;5.20;;;973.60;1459.20;;;;;;5049058;28;20072;-79
2023/07/17 12:39:44;;;;;;;6.97;5.13;;;973.70;1433.60;;;;;;5064326;28;20040;-80
2023/07/17 12:42:11;;;;;;;8.05;4.60;;;;;;;;;;5045472;28;20043;-79
2023/07/17 12:44:37;;;;;;;10.75;5.10;;;;;;;;;;5060648;28;20398;-80
2023/07/17 12:47:03;;;;;;;9.55;4.72;;;;;;;;;;5059567;28;20037;-79
2023/07/17 12:49:30;;;;;;;7.20;4.80;;;;;;;;;;5047170;28;20535;-79
2023/07/17 12:51:56;;;;;;;7.13;4.47;;;;;;;;;;5044630;28;20133;-79
2023/07/17 12:54:22;;;;;;;10.30;5.10;;;;;;;;;;5065235;28;20464;-80
2023/07/17 12:56:48;;;;;;;7.57;4.88;;;;;;;;;;5071592;28;20040;-80
2023/07/17 12:59:14;;;;;;;13.43;5.00;;;;;;;;;;5066080;28;20041;-79
2023/07/17 13:01:40;;;;;;;7.78;5.30;;;;;;;;;;5072398;28;20040;-79
2023/07/17 13:04:06;;;;;;;8.52;4.63;;;;;;;;;;5071640;28;20497;-79
2023/07/17 13:06:32;;;;;;;7.10;4.78;;;;;;;;;;5060274;28;20119;-78
2023/07/17 13:08:58;;;;;;;7.22;4.80;;;;;;;;;;5068251;28;20028;-78
2023/07/17 13:11:25;;;;;;;8.25;5.00;;;;;;;;;;5065556;28;20075;-79
2023/07/17 13:13:51;;;;;;;7.63;4.65;;;;;;;;;;5065278;28;20049;-79
2023/07/17 13:16:17;;;;;;;8.80;4.65;;;;;;;;;;5072759;28;20040;-79
2023/07/17 13:18:43;;;;;;;8.15;4.40;;;;;;;;;;5066024;28;20052;-79
2023/07/17 13:21:10;;;;;;;6.78;4.40;;;;;;;;;;5043023;28;20017;-79
2023/07/17 13:23:38;;;;;;;6.32;4.70;;;;;;;;;;5055239;28;20041;-78
2023/07/17 13:26:04;;;;;;;9.82;4.25;;;;;;;;;;5043013;28;20454;-79
2023/07/17 13:28:31;;;;;;;8.75;4.70;;;;;;;;;;5056620;28;20492;-79
2023/07/17 13:30:57;;;;;;;6.78;4.75;;;;;;;;;;5056542;28;20029;-79
2023/07/17 13:33:23;;;;;;;13.18;4.78;;;;;;;;;;5064852;28;20101;-79
2023/07/17 13:35:49;;;;;;;6.20;4.30;;;;;;;;;;5054921;28;20500;-78
2023/07/17 13:38:15;;;;;;;5.55;4.00;;;;;;;;;;5036416;28;20076;-78
2023/07/17 13:40:41;;;;;;;6.40;4.05;;;;;;;;;;5059800;28;20034;-78
2023/07/17 13:43:07;;;;;;;6.57;3.35;;;;;;;;;;5056353;28;20080;-78
2023/07/17 13:45:33;;;;;;;6.43;3.60;;;;;;;;;;5035924;28;20037;-79
2023/07/17 13:47:59;;;;;;;8.63;3.83;;;;;;;;;;5057773;28;20029;-78
2023/07/17 13:50:25;;;;;;;8.65;3.33;;;;;;;;;;5058405;28;20048;-79
2023/07/17 13:52:52;;;;;;;6.03;3.40;;;;;;;;;;5058906;28;20378;-79
2023/07/17 13:55:17;;;;;;;4.95;3.67;;;1024.50;1228.80;;;;;;5061912;28;20033;-78
2023/07/17 13:57:43;;;;;;;5.45;3.40;;;1024.30;1228.80;;;;;;5045644;28;20371;-79
2023/07/17 14:00:09;;;;;;;7.07;3.53;;;999.30;1254.40;;;;;;5070186;28;20025;-80
2023/07/17 14:02:35;;;;;;;9.32;3.65;;;999.10;1228.80;;;;;;5071722;28;20055;-79
2023/07/17 14:05:01;;;;;;;6.57;3.72;;;998.90;1228.80;;;;;;5049717;28;20033;-79
2023/07/17 14:07:26;;;;;;;5.68;3.53;;;999.20;1254.40;;;;;;5068223;28;20021;-78
2023/07/17 14:09:52;;;;;;;5.85;3.50;;;1024.10;1254.40;;;;;;5055479;28;20040;-78
2023/07/17 14:12:18;;;;;;;5.20;3.95;;;1024.00;1280.00;;;;;;5066557;28;20065;-79
2023/07/17 14:14:44;;;;;;;6.85;3.72;;;;;;;;;;5061970;28;20044;-79
2023/07/17 14:17:09;;;;;;;8.63;4.15;;;1024.90;1228.80;;;;;;5053628;28;20428;-78
2023/07/17 14:19:35;;;;;;;6.20;3.70;;;1024.80;1228.80;;;;;;5073408;28;20048;-79
2023/07/17 14:22:01;;;;;;;7.18;4.03;;;1024.30;1280.00;;;;;;5047739;28;20036;-79
2023/07/17 14:24:27;;;;;;;7.22;4.18;;;1024.40;1254.40;;;;;;5068697;28;20029;-81
2023/07/17 14:26:52;;;;;;;9.93;3.90;;;1024.50;1254.40;;;;;;5078315;28;20473;-80
2023/07/17 14:29:18;;;;;;;6.85;3.83;;;1024.60;1254.40;;;;;;5077396;28;20546;-79
2023/07/17 14:31:44;;;;;;;10.05;4.20;;;1024.80;1280.00;;;;;;5078530;28;20047;-81
2023/07/17 14:34:09;;;;;;;9.77;4.28;;;1024.40;1254.40;;;;;;5059862;28;20401;-81
2023/07/17 14:36:35;;;;;;;6.18;4.00;;;1024.40;1305.60;;;;;;5053881;28;20032;-81
2023/07/17 14:39:01;;;;;;;6.93;4.20;;;1024.40;1254.40;;;;;;5077655;28;20146;-80
2023/07/17 14:41:27;;;;;;;8.02;4.10;;;1024.80;1254.40;;;;;;5059444;28;20029;-81
2023/07/17 14:43:52;;;;;;;7.03;4.00;;;1024.60;1254.40;;;;;;5077600;28;20036;-81
2023/07/17 14:46:18;;;;;;;7.00;3.85;;;1024.80;1280.00;;;;;;5075479;28;20060;-81
2023/07/17 14:48:44;;;;;;;7.20;4.00;;;1024.90;1228.80;;;;;;5058802;28;20037;-80
2023/07/17 14:51:10;;;;;;;7.82;4.18;;;1024.60;1228.80;;;;;;5060012;28;20055;-81
2023/07/17 14:53:35;;;;;;;8.63;4.18;;;1024.30;1228.80;;;;;;5065426;28;20099;-81
2023/07/17 14:56:01;;;;;;;7.45;3.78;;;1024.50;1228.80;;;;;;5056463;28;20029;-81
2023/07/17 14:58:27;;;;;;;8.10;3.88;;;1024.50;1228.80;;;;;;5057115;28;20509;-81
2023/07/17 15:00:53;;;;;;;9.57;4.10;;;1024.50;1228.80;;;;;;5056718;28;20057;-78
2023/07/17 15:03:19;;;;;;;8.45;3.75;;;1024.40;1228.80;;;;;;5057275;28;20048;-81
2023/07/17 15:05:45;;;;;;;6.38;3.80;;;1024.50;1228.80;;;;;;5050402;28;20398;-82
2023/07/17 15:08:11;;;;;;;6.35;3.75;;;1024.50;1254.40;;;;;;5076672;28;20028;-81
2023/07/17 15:10:36;;;;;;;6.10;3.60;;;1024.20;1254.40;;;;;;5058559;28;20060;-82
2023/07/17 15:13:02;;;;;;;7.82;4.10;;;999.30;1254.40;;;;;;5058695;28;20055;-81
2023/07/17 15:15:31;;;;;;;10.25;4.28;;;1024.10;1254.40;;;;;;5076961;28;20032;-81
2023/07/17 15:17:57;;;;;;;10.15;4.18;;;999.20;1254.40;;;;;;5060416;28;20056;-83
2023/07/17 15:20:23;;;;;;;8.68;3.72;;;998.90;1280.00;;;;;;5055963;28;20397;-80
2023/07/17 15:22:48;;;;;;;8.50;4.20;;;999.00;1305.60;;;;;;5056239;28;20056;-82
2023/07/17 15:25:14;;;;;;;8.90;3.72;;;999.30;1280.00;;;;;;5056665;28;20051;-82
2023/07/17 15:27:42;;;;;;;9.65;3.88;;;1024.10;1228.80;;;;;;5037711;28;20033;-83
2023/07/17 15:30:08;;;;;;;7.72;4.15;;;1024.30;1254.40;;;;;;5056776;28;20120;-83
2023/07/17 15:32:34;;;;;;;9.05;4.32;;;999.30;1254.40;;;;;;5037879;28;20072;-83
2023/07/17 15:34:59;;;;;;;5.93;3.80;;;999.20;1254.40;;;;;;5056526;28;20047;-82
2023/07/17 15:37:25;;;;;;;5.90;3.75;;;999.00;1280.00;;;;;;5067655;28;20435;-81
2023/07/17 15:39:51;;;;;;;7.45;3.85;;;998.80;1331.20;;;;;;5076151;28;20052;-82
2023/07/17 15:42:17;;;;;;;6.55;4.07;;;998.70;1305.60;;;;;;5076670;28;20028;-84
2023/07/17 15:44:42;;;;;;;8.65;3.90;;;998.80;1331.20;;;;;;5076114;28;20024;-82
2023/07/17 15:47:08;;;;;;;9.07;4.00;;;998.90;1331.20;;;;;;5074129;28;20036;-85
2023/07/17 15:49:37;;;;;;;8.05;3.90;;;998.70;1305.60;;;;;;5048141;28;20135;-85
2023/07/17 15:52:03;;;;;;;10.00;4.10;;;998.70;1331.20;;;;;;5055973;28;20044;-83
2023/07/17 15:54:29;;;;;;;8.82;4.30;;;998.60;1331.20;;;;;;5056403;28;20048;-81
2023/07/17 15:56:54;;;;;;;9.48;4.10;;;998.70;1356.80;;;;;;5076418;28;20424;-82
2023/07/17 15:59:20;;;;;;;7.05;4.10;;;998.70;1331.20;;;;;;5058090;28;20080;-83
2023/07/17 16:01:46;;;;;;;7.53;4.18;;;998.50;1356.80;;;;;;5076232;28;20037;-83
2023/07/17 16:04:12;;;;;;;10.02;4.45;;;998.40;1382.40;;;;;;5057638;28;20091;-83
2023/07/17 16:06:38;;;;;;;10.05;4.38;;;973.60;1382.40;;;;;;5058235;28;20040;-82
2023/07/17 16:09:07;;;;;;;7.32;4.22;;;998.40;1408.00;;;;;;5063299;28;20036;-82
2023/07/17 16:11:33;;;;;;;10.13;4.20;;;998.50;1408.00;;;;;;5055804;28;20035;-82
2023/07/17 16:13:59;;;;;;;9.75;4.32;;;998.60;1408.00;;;;;;5074149;28;20045;-82
2023/07/17 16:16:25;;;;;;;6.97;4.25;;;998.50;1408.00;;;;;;5071527;28;20082;-81
2023/07/17 16:18:50;;;;;;;8.82;4.40;;;998.50;1408.00;;;;;;5062639;28;20044;-82
2023/07/17 16:21:16;;;;;;;8.00;4.25;;;973.70;1408.00;;;;;;5074757;28;20094;-81
2023/07/17 16:23:43;;;;;;;8.63;4.40;;;973.70;1408.00;;;;;;5068871;28;20029;-82
2023/07/17 16:26:10;;;;;;;6.95;4.10;;;973.50;1408.00;;;;;;5070525;28;20033;-82
2023/07/17 16:28:36;;;;;;;8.07;4.30;;;973.50;1433.60;;;;;;5062043;28;20028;-82
2023/07/17 16:31:02;;;;;;;13.32;4.32;;;973.50;1408.00;;;;;;5076178;28;20536;-80
2023/07/17 16:33:29;;;;;;;9.55;4.20;;;;;;;;;;5059137;28;20070;-82
2023/07/17 16:35:58;;;;;;;7.70;4.45;;;973.10;1408.00;;;;;;5084397;28;20033;-80
2023/07/17 16:38:25;;;;;;;9.65;4.28;;;972.80;1459.20;;;;;;5084864;28;20389;-81
2023/07/17 16:40:51;;;;;;;9.32;4.32;;;948.10;1433.60;;;;;;5084328;28;20037;-79
2023/07/17 16:43:17;;;;;;;11.82;4.38;;;948.00;1433.60;;;;;;5087902;28;20150;-79
2023/07/17 16:45:43;;;;;;;6.22;3.92;;;948.10;1408.00;;;;;;5083866;28;20055;-81
2023/07/17 16:48:13;;;;;;;10.43;4.07;;;948.00;1433.60;;;;;;5078867;28;20108;-80
2023/07/17 16:50:40;;;;;;;13.65;4.35;;;947.90;1408.00;;;;;;5073976;28;20051;-82
2023/07/17 16:53:06;;;;;;;8.43;4.25;;;947.80;1408.00;;;;;;5080596;28;20522;-81
2023/07/17 16:55:33;;;;;;;8.57;3.75;;;947.60;1408.00;;;;;;5062648;28;20028;-81
2023/07/17 16:57:59;;;;;;;8.48;4.20;;;947.60;1408.00;;;;;;5081706;28;20033;-80
2023/07/17 17:00:25;;;;;;;7.82;3.80;;;947.50;1408.00;;;;;;5070422;28;20048;-79
2023/07/17 17:03:23;;;;;;;9.05;4.30;;;947.30;1408.00;;;;;;5080172;28;20039;-80
2023/07/17 17:05:49;;;;;;;12.68;4.10;;;922.50;1433.60;;;;;;5062203;28;20092;-81
2023/07/17 17:08:14;;;;;;;12.38;4.35;;;947.20;1433.60;;;;;;5072733;28;20052;-79
2023/07/17 17:10:40;;;;;;;12.23;4.00;;;922.40;1459.20;;;;;;5065117;28;20028;-81
2023/07/17 17:13:06;;;;;;;11.05;4.35;;;922.40;1459.20;;;;;;5076183;28;20450;-81
2023/07/17 17:15:34;;;;;;;10.68;4.15;;;922.30;1459.20;;;;;;5061451;28;20037;-79
2023/07/17 17:18:10;;;;;;;10.75;4.32;;;922.30;1459.20;;;;;;5037268;28;20029;-79
2023/07/17 17:20:36;;;;;;;11.18;4.40;;;922.30;1459.20;;;;;;5017987;28;20053;-82
2023/07/17 17:23:02;;;;;;;13.13;4.60;;;947.40;1484.80;;;;;;5042558;28;20114;-82
2023/07/17 17:25:28;;;;;;;13.38;4.20;;;922.30;1459.20;;;;;;5042682;28;20033;-80
2023/07/17 17:27:54;;;;;;;7.22;4.00;;;922.10;1484.80;;;;;;5058206;28;20037;-80
2023/07/17 17:30:21;;;;;;;12.10;4.40;;;922.10;1484.80;;;;;;5057810;28;20068;-81
2023/07/17 17:32:47;;;;;;;9.15;3.92;;;921.90;1484.80;;;;;;5048149;28;20033;-80
2023/07/17 17:35:13;;;;;;;10.70;4.20;;;921.90;1484.80;;;;;;5053402;28;20025;-81
2023/07/17 17:37:39;;;;;;;11.93;4.00;;;922.00;1510.40;;;;;;5056677;28;20478;-80
2023/07/17 17:40:08;;;;;;;10.63;4.28;;;921.90;1510.40;;;;;;5060856;28;20047;-80
2023/07/17 17:42:37;;;;;;;9.63;4.38;;;921.70;1510.40;;;;;;5039788;28;20041;-81
2023/07/17 17:45:04;;;;;;;16.60;4.78;;;921.70;1510.40;;;;;;5043743;28;20052;-79
2023/07/17 17:47:30;;;;;;;8.90;4.80;;;896.90;1484.80;;;;;;5065116;28;20029;-81
2023/07/17 17:49:56;;;;;;;9.27;4.53;;;896.90;1510.40;;;;;;5063939;28;20062;-82
2023/07/17 17:52:22;;;;;;;12.40;4.50;;;896.80;1536.00;;;;;;5064551;28;20025;-80
2023/07/17 17:54:48;;;;;;;11.18;4.65;;;896.40;1561.60;;;;;;5065088;28;20041;-81
2023/07/17 17:57:14;;;;;;;7.82;4.60;;;896.30;1587.20;;;;;;5046728;28;20033;-81
2023/07/17 17:59:41;;;;;;;8.82;4.95;;;896.20;1587.20;;;;;;5071230;28;20052;-80
2023/07/17 18:02:09;;;;;;;9.35;4.47;;;871.20;1612.80;;;;;;5072926;28;20059;-81
2023/07/17 18:04:35;;;;;;;12.52;4.82;;;;;;;;;;5054616;28;20033;-81
2023/07/17 18:07:01;;;;;;;13.70;4.90;;;;;;;;;;5044382;28;20076;-81
2023/07/17 18:09:27;;;;;;;11.20;4.93;;;871.00;1664.00;;;;;;5025990;28;20441;-81
2023/07/17 18:11:53;;;;;;;14.63;4.93;;;870.60;1689.60;;;;;;5026986;28;20034;-80
2023/07/17 18:14:18;;;;;;;9.05;4.50;;;870.40;1689.60;;;;;;5045429;28;20478;-79
2023/07/17 18:16:47;;;;;;;6.38;4.88;;;845.70;1715.20;;;;;;5046970;28;20037;-80
2023/07/17 18:19:13;;;;;;;8.85;5.05;;;845.50;1740.80;;;;;;5054478;28;20501;-80
2023/07/17 18:21:39;;;;;;;9.70;5.10;;;845.40;1766.40;;;;;;5059139;28;20040;-82
2023/07/17 18:24:08;;;;;;;7.35;5.07;;;845.20;1792.00;;;;;;5081179;28;20158;-81
2023/07/17 18:26:34;;;;;;;11.88;5.57;;;845.10;1817.60;;;;;;5085105;28;20032;-80
2023/07/17 18:28:59;;;;;;;9.73;5.63;;;844.80;1843.20;;;;;;5086898;28;20444;-80
2023/07/17 18:31:26;;;;;;;11.20;5.55;;;844.80;1868.80;;;;;;5079222;28;20036;-81
2023/07/17 18:33:53;;;;;;;9.85;5.72;;;820.10;1843.20;;;;;;5080591;28;20045;-79
2023/07/17 18:36:19;;;;;;;13.88;5.88;;;;;;;;;;5083076;28;20477;-83
2023/07/17 18:38:45;;;;;;;12.38;5.60;;;844.80;1920.00;;;;;;5092275;28;20079;-82
2023/07/17 18:41:13;;;;;;;13.40;5.80;;;820.00;1894.40;;;;;;5081930;28;20553;-79
2023/07/17 18:43:39;;;;;;;9.05;5.40;;;819.80;1920.00;;;;;;5063366;28;20489;-80
2023/07/17 18:46:05;;;;;;;10.32;5.97;;;819.70;1920.00;;;;;;5063410;28;20024;-81
2023/07/17 18:48:30;;;;;;;10.85;5.85;;;819.60;1945.60;;;;;;5081633;28;20043;-80
2023/07/17 18:50:56;;;;;;;10.52;5.53;;;819.50;1971.20;;;;;;5079687;28;20032;-80
2023/07/17 18:53:22;;;;;;;8.32;5.88;;;819.70;1971.20;;;;;;5090773;28;20055;-82
2023/07/17 18:55:48;;;;;;;11.80;6.15;;;819.50;1996.80;;;;;;5086361;28;20090;-80
2023/07/17 18:58:13;;;;;;;10.85;6.07;;;819.30;2022.40;;;;;;5060719;28;20040;-81
2023/07/17 19:00:41;;;;;;;12.35;5.72;;;819.20;2022.40;;;;;;5070367;28;20474;-82
2023/07/17 19:03:07;;;;;;;8.50;5.88;;;819.20;2048.00;;;;;;5085643;28;20020;-81
2023/07/17 19:05:34;;;;;;;12.65;6.10;;;;;;;;;;5081212;28;20043;-82
2023/07/17 19:08:16;;;;;;;10.77;6.10;;;819.40;2073.60;;;;;;5070598;28;20044;-80
2023/07/17 19:10:43;;;;;;;10.93;6.30;;;794.50;2099.20;;;;;;5066909;28;20126;-79
2023/07/17 19:13:12;;;;;;;9.95;6.13;;;794.40;2099.20;;;;;;5075980;28;20041;-82
2023/07/17 19:15:38;;;;;;;10.15;6.35;;;794.40;2124.80;;;;;;5060697;28;20394;-81
2023/07/17 19:18:04;;;;;;;16.70;6.65;;;794.50;2124.80;;;;;;5081280;28;20063;-81
2023/07/17 19:20:30;;;;;;;12.60;6.47;;;794.10;2176.00;;;;;;5080148;28;20040;-80
2023/07/17 19:22:56;;;;;;;10.43;6.25;;;794.10;2176.00;;;;;;5062756;28;20059;-80
2023/07/17 19:25:21;;;;;;;8.65;6.53;;;794.10;2201.60;;;;;;5076117;28;20120;-80
2023/07/17 19:27:47;;;;;;;9.93;6.97;;;794.10;2227.20;;;;;;5062884;28;20036;-81
2023/07/17 19:30:13;;;;;;;10.45;6.65;;;793.90;2227.20;;;;;;5077942;28;20115;-80
2023/07/17 19:32:42;;;;;;;10.05;6.03;;;;;;;;;;5057764;28;20127;-78
2023/07/17 19:35:10;;;;;;;13.27;6.85;;;;;;;;;;5057752;28;20447;-78
2023/07/17 19:37:36;;;;;;;11.68;6.75;;;;;;;;;;5057203;28;20040;-78
2023/07/17 19:40:04;;;;;;;9.25;6.50;;;;;;;;;;5058905;28;20039;-80
2023/07/17 19:42:30;;;;;;;11.15;6.60;;;;;;;;;;5057317;28;20036;-80
2023/07/17 19:44:59;;;;;;;8.75;6.72;;;;;;;;;;5072136;28;20032;-80
2023/07/17 19:47:25;;;;;;;10.70;6.53;;;;;;;;;;5057475;28;20469;-79
2023/07/17 19:49:51;;;;;;;12.13;6.60;;;;;;;;;;5055829;28;20374;-77
2023/07/17 19:52:17;;;;;;;10.15;6.30;;;793.60;2380.80;;;;;;5064189;28;20043;-79
2023/07/17 19:54:43;;;;;;;10.20;6.32;;;768.80;2355.20;;;;;;5079746;28;20455;-77
2023/07/17 19:57:10;;;;;;;7.57;6.30;;;768.80;2406.40;;;;;;5078528;28;20445;-77
2023/07/17 19:59:36;;;;;;;9.43;6.40;;;768.50;2432.00;;;;;;5062185;28;20033;-78
2023/07/17 20:02:02;;;;;;;10.35;6.32;;;768.50;2432.00;;;;;;5080243;28;20033;-78
2023/07/17 20:04:29;;;;;;;13.68;6.20;;;768.50;2432.00;;;;;;5079267;28;20534;-77
2023/07/17 20:06:54;;;;;;;10.38;6.30;;;768.50;2432.00;;;;;;5081458;28;20466;-77
2023/07/17 20:09:20;;;;;;;12.27;7.10;;;768.30;2432.00;;;;;;5085686;28;20060;-78
2023/07/17 20:11:47;;;;;;;12.52;6.53;;;768.40;2432.00;;;;;;5083420;28;20389;-77
2023/07/17 20:14:13;;;;;;;10.93;6.40;;;768.30;2432.00;;;;;;5062639;28;20067;-77
2023/07/17 20:16:39;;;;;;;11.80;6.45;;;768.30;2432.00;;;;;;5082215;28;20036;-78
2023/07/17 20:19:05;;;;;;;7.78;6.40;;;;;;;;;;5079632;28;20454;-79
2023/07/17 20:21:33;;;;;;;10.82;6.25;;;;;;;;;;5078003;28;20485;-79
2023/07/17 20:24:02;;;;;;;12.73;7.00;;;;;;;;;;5058532;28;20068;-77
2023/07/17 20:26:28;;;;;;;10.82;6.95;;;;;;;;;;5072629;28;20466;-79
2023/07/17 20:28:54;;;;;;;9.35;6.55;;;;;;;;;;5076007;28;20043;-77
2023/07/17 20:31:20;;;;;;;10.60;6.25;;;;;;;;;;5070979;28;20083;-78
2023/07/17 20:33:46;;;;;;;8.88;6.70;;;768.20;2432.00;;;;;;5057488;28;20095;-77
2023/07/17 20:36:12;;;;;;;9.13;6.15;;;768.00;2432.00;;;;;;5059955;28;20029;-78
2023/07/17 20:38:38;;;;;;;10.35;7.10;;;768.00;2432.00;;;;;;5056369;28;20128;-79
2023/07/17 20:41:04;;;;;;;10.98;7.80;;;743.20;2432.00;;;;;;5074734;28;20041;-77
2023/07/17 20:43:29;;;;;;;10.30;7.20;;;743.20;2432.00;;;;;;5075220;28;20040;-77
2023/07/17 20:45:56;;;;;;;11.90;7.10;;;743.20;2432.00;;;;;;5056290;28;20119;-77
2023/07/17 20:48:21;;;;;;;11.32;7.20;;;743.20;2432.00;;;;;;5066972;28;20068;-76
2023/07/17 20:51:10;;;;;;;9.60;6.95;;;743.20;2432.00;;;;;;5040436;28;20060;-77
2023/07/17 20:53:36;;;;;;;12.70;6.80;;;743.30;2432.00;;;;;;5052761;28;20068;-77
2023/07/17 20:56:04;;;;;;;14.95;7.22;;;768.00;2432.00;;;;;;5064952;28;20359;-77
2023/07/17 20:58:34;;;;;;;10.35;6.32;;;743.20;2432.00;;;;;;5053365;28;20088;-77
2023/07/17 21:01:03;;;;;;;12.13;6.85;;;743.20;2432.00;;;;;;5060449;28;20029;-79
2023/07/17 21:03:29;;;;;;;9.55;7.07;;;743.30;2432.00;;;;;;5064781;28;20457;-75
2023/07/17 21:05:55;;;;;;;10.73;6.53;;;743.00;2432.00;;;;;;5065045;28;20037;-77
2023/07/17 21:08:25;;;;;;;10.98;7.25;;;;;;;;;;5053997;28;20041;-77
2023/07/17 21:10:51;;;;;;;13.25;6.70;;;;;;;;;;5068733;28;20048;-79
2023/07/17 21:13:17;;;;;;;10.05;6.85;;;;;;;;;;5053666;28;20040;-77
2023/07/17 21:15:43;;;;;;;9.60;6.88;;;;;;;;;;5066526;28;20033;-77
2023/07/17 21:18:10;;;;;;;12.07;6.97;;;;;;;;;;5055836;28;20044;-80
2023/07/17 21:20:36;;;;;;;11.20;7.10;;;743.10;2432.00;;;;;;5074897;28;20090;-80
